createdAt,value
2023-12-09T00:04:51.330Z,9.00
2023-12-09T00:09:53.987Z,9.95
2023-12-09T00:14:56.663Z,13.23
2023-12-09T00:20:00.632Z,13.55
2023-12-09T00:25:03.651Z,14.00
2023-12-09T00:30:09.637Z,14.32
2023-12-09T00:35:15.203Z,14.40
2023-12-09T00:40:20.683Z,10.38
2023-12-09T00:45:23.540Z,11.80
2023-12-09T00:50:26.280Z,11.75
2023-12-09T00:55:28.906Z,10.45
2023-12-09T01:00:31.807Z,12.02
2023-12-09T01:05:34.497Z,10.45
2023-12-09T01:10:37.165Z,11.63
2023-12-09T01:15:40.227Z,9.95
2023-12-09T01:20:43.102Z,9.15
2023-12-09T01:25:45.943Z,8.32
2023-12-09T01:30:48.702Z,10.30
2023-12-09T01:35:51.343Z,9.43
2023-12-09T01:40:55.690Z,10.50
2023-12-09T01:46:08.954Z,10.07
2023-12-09T01:51:12.787Z,11.43
2023-12-09T01:56:17.990Z,10.85
2023-12-09T02:01:20.794Z,11.65
2023-12-09T02:06:23.545Z,10.15
2023-12-09T02:11:45.267Z,9.48
2023-12-09T02:17:21.714Z,9.10
2023-12-09T02:22:24.683Z,9.73
2023-12-09T02:27:49.167Z,11.43
2023-12-09T02:32:55.604Z,9.07
2023-12-09T02:37:59.933Z,10.05
2023-12-09T02:43:04.381Z,10.05
2023-12-09T02:48:07.722Z,10.27
2023-12-09T02:53:10.539Z,9.75
2023-12-09T02:58:13.859Z,11.32
2023-12-09T03:03:17.027Z,10.30
2023-12-09T03:08:19.884Z,9.95
2023-12-09T03:13:22.525Z,8.75
2023-12-09T03:18:25.384Z,8.85
2023-12-09T03:23:28.225Z,7.65
2023-12-09T03:28:30.889Z,9.48
2023-12-09T03:33:33.708Z,10.60
2023-12-09T03:38:37.222Z,8.38
2023-12-09T03:43:39.953Z,6.40
2023-12-09T03:48:42.710Z,6.28
2023-12-09T03:53:45.974Z,6.00
2023-12-09T03:58:49.059Z,4.55
2023-12-09T04:03:52.410Z,4.85
2023-12-09T04:08:55.658Z,3.75
2023-12-09T04:13:58.538Z,3.85
2023-12-09T04:19:01.694Z,4.55
2023-12-09T04:24:04.912Z,4.90
2023-12-09T04:29:08.218Z,3.60
2023-12-09T04:34:11.084Z,3.45
2023-12-09T04:39:13.873Z,4.80
2023-12-09T04:44:16.534Z,3.83
2023-12-09T04:49:19.690Z,3.90
2023-12-09T04:54:22.634Z,3.28
2023-12-09T04:59:25.612Z,3.53
2023-12-09T05:04:28.874Z,3.67
2023-12-09T05:09:31.905Z,3.40
2023-12-09T05:14:34.893Z,3.70
2023-12-09T05:19:37.717Z,3.45
2023-12-09T05:24:40.631Z,3.25
2023-12-09T05:29:44.814Z,3.97
2023-12-09T05:34:47.693Z,3.83
2023-12-09T05:39:50.352Z,4.30
2023-12-09T05:44:53.335Z,3.53
2023-12-09T05:49:56.269Z,3.63
2023-12-09T05:54:59.086Z,4.10
2023-12-09T06:00:01.974Z,5.18
2023-12-09T06:05:07.833Z,3.50
2023-12-09T06:10:11.446Z,4.07
2023-12-09T06:15:17.763Z,3.58
2023-12-09T06:20:20.739Z,4.03
2023-12-09T06:25:23.648Z,3.88
2023-12-09T06:30:26.726Z,4.32
2023-12-09T06:35:29.616Z,3.40
2023-12-09T06:40:38.280Z,4.90
2023-12-09T06:45:41.337Z,4.18
2023-12-09T06:50:44.922Z,4.13
2023-12-09T06:55:47.868Z,4.90
2023-12-09T07:00:50.864Z,5.18
2023-12-09T07:05:53.929Z,4.80
2023-12-09T07:11:01.014Z,5.63
2023-12-09T07:16:04.720Z,4.55
2023-12-09T07:21:08.026Z,6.07
2023-12-09T07:26:14.548Z,6.03
2023-12-09T07:31:18.382Z,4.85
2023-12-09T07:36:21.538Z,4.18
2023-12-09T07:41:24.729Z,4.80
2023-12-09T07:46:27.588Z,4.65
2023-12-09T07:51:30.758Z,4.05
2023-12-09T07:56:33.538Z,4.53
2023-12-09T08:01:36.970Z,4.90
2023-12-09T08:06:40.321Z,5.18
2023-12-09T08:11:43.376Z,7.18
2023-12-09T08:16:46.938Z,5.43
2023-12-09T08:21:49.769Z,6.28
2023-12-09T08:26:53.624Z,5.32
2023-12-09T08:31:58.560Z,5.90
2023-12-09T08:42:04.007Z,5.25
2023-12-09T08:47:06.996Z,5.47
2023-12-09T08:52:09.971Z,6.75
2023-12-09T08:57:12.893Z,7.13
2023-12-09T09:02:15.949Z,7.45
2023-12-09T09:07:19.289Z,6.45
2023-12-09T09:12:22.493Z,6.90
2023-12-09T09:17:26.515Z,6.47
2023-12-09T09:22:30.894Z,7.90
2023-12-09T09:27:33.945Z,6.07
2023-12-09T09:32:37.440Z,6.57
2023-12-09T09:37:40.307Z,7.05
2023-12-09T09:42:51.824Z,6.45
2023-12-09T09:48:06.088Z,5.97
2023-12-09T09:53:44.908Z,7.78
2023-12-09T09:58:51.621Z,6.53
2023-12-09T10:03:58.479Z,6.78
2023-12-09T10:09:03.149Z,7.15
2023-12-09T10:14:31.431Z,8.32
2023-12-09T10:19:44.214Z,5.93
2023-12-09T10:24:53.033Z,6.75
2023-12-09T10:30:08.528Z,6.85
2023-12-09T10:35:12.622Z,7.40
2023-12-09T10:40:26.987Z,7.18
2023-12-09T10:50:45.335Z,7.03
2023-12-09T10:56:07.524Z,6.30
2023-12-09T11:01:13.479Z,6.57
2023-12-09T11:06:19.038Z,7.65
2023-12-09T11:11:21.947Z,7.22
2023-12-09T11:16:24.740Z,8.05
2023-12-09T11:21:33.226Z,8.32
2023-12-09T11:26:38.179Z,7.93
2023-12-09T11:31:50.200Z,7.28
2023-12-09T11:36:55.329Z,9.20
2023-12-09T11:42:00.810Z,8.93
2023-12-09T11:47:06.200Z,7.82
2023-12-09T11:52:09.677Z,7.40
2023-12-09T11:57:12.856Z,7.25
2023-12-09T12:02:16.958Z,9.63
2023-12-09T12:07:19.908Z,8.18
2023-12-09T12:12:23.002Z,7.38
2023-12-09T12:17:26.372Z,8.32
2023-12-09T12:22:29.444Z,8.00
2023-12-09T12:27:36.982Z,8.07
2023-12-09T12:32:39.954Z,7.88
2023-12-09T12:37:42.877Z,8.35
2023-12-09T12:42:45.778Z,8.75
2023-12-09T12:47:49.567Z,5.68
2023-12-09T12:52:52.538Z,8.15
2023-12-09T12:57:56.990Z,6.68
2023-12-09T13:03:00.000Z,6.05
2023-12-09T13:08:02.767Z,5.95
2023-12-09T13:13:07.159Z,6.68
2023-12-09T13:18:10.118Z,5.72
2023-12-09T13:23:13.779Z,6.72
2023-12-09T13:28:16.744Z,7.07
2023-12-09T13:33:19.535Z,5.22
2023-12-09T13:38:22.290Z,6.72
2023-12-09T13:43:25.062Z,7.00
2023-12-09T13:48:27.882Z,6.72
2023-12-09T13:53:30.981Z,7.30
2023-12-09T13:58:34.054Z,7.45
2023-12-09T14:03:37.276Z,6.32
2023-12-09T14:08:40.031Z,6.72
2023-12-09T14:13:42.949Z,5.65
2023-12-09T14:18:45.795Z,4.70
2023-12-09T14:23:48.613Z,6.60
2023-12-09T14:28:51.427Z,6.32
2023-12-09T14:34:00.980Z,6.63
2023-12-09T14:39:11.144Z,6.32
2023-12-09T14:44:29.862Z,5.65
2023-12-09T14:49:38.500Z,7.18
2023-12-09T14:54:50.576Z,5.78
2023-12-09T14:59:57.472Z,4.45
2023-12-09T15:05:06.079Z,5.97
2023-12-09T15:10:28.230Z,8.07
2023-12-09T15:15:32.128Z,6.38
2023-12-09T15:20:35.500Z,6.63
2023-12-09T15:25:39.476Z,6.97
2023-12-09T15:30:42.287Z,8.32
2023-12-09T15:35:45.028Z,7.20
2023-12-09T15:40:48.292Z,8.00
2023-12-09T15:45:52.168Z,7.97
2023-12-09T15:50:55.934Z,7.93
2023-12-09T15:55:58.846Z,8.10
2023-12-09T16:01:03.795Z,7.63
2023-12-09T16:06:07.791Z,9.20
2023-12-09T16:11:10.563Z,7.38
2023-12-09T16:16:14.913Z,8.95
2023-12-09T16:21:17.791Z,7.32
2023-12-09T16:26:21.913Z,8.32
2023-12-09T16:31:24.789Z,7.53
2023-12-09T16:36:28.454Z,8.38
2023-12-09T16:41:31.558Z,6.28
2023-12-09T16:46:35.683Z,8.00
2023-12-09T16:51:38.824Z,7.53
2023-12-09T16:56:41.933Z,6.40
2023-12-09T17:01:48.285Z,8.48
2023-12-09T17:07:06.442Z,7.90
2023-12-09T17:12:13.741Z,6.65
2023-12-09T17:17:16.680Z,8.00
2023-12-09T17:22:19.435Z,8.43
2023-12-09T17:27:22.294Z,7.60
2023-12-09T17:32:25.257Z,7.90
2023-12-09T17:37:28.406Z,6.97
2023-12-09T17:42:31.489Z,7.28
2023-12-09T17:47:34.940Z,8.13
2023-12-09T17:52:39.184Z,8.63
2023-12-09T17:57:42.476Z,7.50
2023-12-09T18:02:45.979Z,8.15
2023-12-09T18:07:49.114Z,8.27
2023-12-09T18:12:52.183Z,8.95
2023-12-09T18:17:55.274Z,9.02
2023-12-09T18:22:59.897Z,9.40
2023-12-09T18:28:04.130Z,9.05
2023-12-09T18:33:07.338Z,8.63
2023-12-09T18:38:14.790Z,8.50
2023-12-09T18:43:17.999Z,9.75
2023-12-09T18:48:23.339Z,10.30
2023-12-09T18:53:26.253Z,9.05
2023-12-09T18:58:29.796Z,11.68
2023-12-09T19:03:32.907Z,10.38
2023-12-09T19:08:36.702Z,9.00
2023-12-09T19:13:46.088Z,7.68
2023-12-09T19:18:49.567Z,9.65
2023-12-09T19:23:58.054Z,7.78
2023-12-09T19:29:05.654Z,7.93
2023-12-09T19:34:08.888Z,6.78
2023-12-09T19:39:12.978Z,9.70
2023-12-09T19:44:16.517Z,6.18
2023-12-09T19:49:20.685Z,8.50
2023-12-09T19:54:27.639Z,9.18
2023-12-09T19:59:32.677Z,8.15
2023-12-09T20:09:38.752Z,6.22
2023-12-09T20:14:42.205Z,7.03
2023-12-09T20:19:45.431Z,7.22
2023-12-09T20:24:49.787Z,7.72
2023-12-09T20:29:56.816Z,7.10
2023-12-09T20:35:04.359Z,7.70
2023-12-09T20:40:10.048Z,6.82
2023-12-09T20:45:14.817Z,6.53
2023-12-09T20:50:18.415Z,5.63
2023-12-09T20:55:21.586Z,5.43
2023-12-09T21:00:25.142Z,4.68
2023-12-09T21:05:29.116Z,5.50
2023-12-09T21:10:32.269Z,6.47
2023-12-09T21:15:35.052Z,6.45
2023-12-09T21:20:39.887Z,4.95
2023-12-09T21:25:43.191Z,5.40
2023-12-09T21:30:48.988Z,5.88
2023-12-09T21:35:52.547Z,5.78
2023-12-09T21:40:55.422Z,5.88
2023-12-09T21:45:58.820Z,6.10
2023-12-09T21:51:03.363Z,5.93
2023-12-09T21:56:07.766Z,5.97
2023-12-09T22:01:11.573Z,4.80
2023-12-09T22:06:15.070Z,5.55
2023-12-09T22:11:18.670Z,4.45
2023-12-09T22:16:21.879Z,5.47
2023-12-09T22:21:24.710Z,6.00
2023-12-09T22:26:27.497Z,4.78
2023-12-09T22:31:30.744Z,5.72
2023-12-09T22:36:34.139Z,4.60
2023-12-09T22:41:37.054Z,5.82
2023-12-09T22:46:39.900Z,5.55
2023-12-09T22:51:43.162Z,4.38
2023-12-09T22:56:46.380Z,5.75
2023-12-09T23:01:49.230Z,4.38
2023-12-09T23:06:51.908Z,5.55
2023-12-09T23:11:54.652Z,4.28
2023-12-09T23:16:57.494Z,4.05
2023-12-09T23:22:00.339Z,5.95
2023-12-09T23:27:04.187Z,3.15
2023-12-09T23:32:09.035Z,3.85
2023-12-09T23:37:12.043Z,4.30
2023-12-09T23:42:14.817Z,4.85
2023-12-09T23:47:17.582Z,3.88
2023-12-09T23:52:20.338Z,4.20
2023-12-09T23:57:23.459Z,4.95
